createdAt,value
2019-05-06T00:02:09.870Z,27.00
2019-05-06T00:04:44.708Z,20.57
2019-05-06T00:07:17.080Z,19.73
2019-05-06T00:09:49.860Z,23.23
2019-05-06T00:12:24.005Z,22.57
2019-05-06T00:14:56.816Z,77.33
2019-05-06T00:17:29.385Z,91.97
2019-05-06T00:20:04.123Z,25.77
2019-05-06T00:22:36.176Z,27.43
2019-05-06T00:25:14.088Z,25.27
2019-05-06T00:27:54.296Z,24.47
2019-05-06T00:30:26.487Z,62.43
2019-05-06T00:32:58.836Z,36.17
2019-05-06T00:35:31.444Z,43.13
2019-05-06T00:38:04.499Z,33.93
2019-05-06T00:40:54.775Z,21.67
2019-05-06T00:43:27.414Z,14.07
2019-05-06T00:46:00.770Z,12.67
2019-05-06T00:48:34.098Z,13.40
2019-05-06T00:51:07.198Z,14.17
2019-05-06T00:53:43.915Z,14.70
2019-05-06T00:56:16.595Z,14.27
2019-05-06T00:58:49.154Z,13.60
2019-05-06T01:01:26.977Z,14.47
2019-05-06T01:03:56.254Z,14.47
2019-05-06T01:06:29.056Z,14.90
2019-05-06T01:09:04.596Z,14.73
2019-05-06T01:11:39.121Z,17.63
2019-05-06T01:14:14.812Z,15.17
2019-05-06T01:16:47.745Z,17.13
2019-05-06T01:19:20.185Z,17.20
2019-05-06T01:21:54.014Z,16.67
2019-05-06T01:24:27.205Z,16.70
2019-05-06T01:26:59.940Z,20.33
2019-05-06T01:29:34.622Z,20.37
2019-05-06T01:32:06.845Z,18.13
2019-05-06T01:34:39.330Z,16.50
2019-05-06T01:37:14.270Z,16.10
2019-05-06T01:39:54.184Z,15.10
2019-05-06T01:42:46.870Z,15.97
2019-05-06T01:45:19.965Z,14.77
2019-05-06T01:47:54.339Z,15.90
2019-05-06T01:50:27.035Z,19.43
2019-05-06T01:52:59.795Z,19.13
2019-05-06T01:55:34.211Z,23.70
2019-05-06T01:58:06.873Z,25.37
2019-05-06T02:00:39.661Z,24.57
2019-05-06T02:03:14.730Z,26.27
2019-05-06T02:05:47.259Z,23.73
2019-05-06T02:08:20.000Z,24.03
2019-05-06T02:10:54.555Z,22.73
2019-05-06T02:13:27.185Z,21.53
2019-05-06T02:15:59.875Z,23.80
2019-05-06T02:18:33.970Z,23.10
2019-05-06T02:21:08.485Z,23.97
2019-05-06T02:23:44.148Z,24.73
2019-05-06T02:26:16.926Z,24.50
2019-05-06T02:28:51.095Z,25.37
2019-05-06T02:31:41.586Z,23.67
2019-05-06T02:34:25.900Z,24.00
2019-05-06T02:37:16.375Z,23.47
2019-05-06T02:39:49.126Z,26.80
2019-05-06T02:42:23.937Z,38.13
2019-05-06T02:44:56.218Z,29.23
2019-05-06T02:47:37.256Z,28.93
2019-05-06T02:50:14.616Z,27.13
2019-05-06T02:52:47.301Z,29.37
2019-05-06T02:55:19.853Z,28.60
2019-05-06T02:57:53.635Z,28.37
2019-05-06T03:00:26.732Z,27.87
2019-05-06T03:03:02.730Z,28.57
2019-05-06T03:05:33.825Z,29.53
2019-05-06T03:08:06.480Z,26.73
2019-05-06T03:10:39.236Z,27.73
2019-05-06T03:13:14.240Z,28.33
2019-05-06T03:15:46.445Z,29.53
2019-05-06T03:18:19.250Z,27.03
2019-05-06T03:20:59.903Z,29.00
2019-05-06T03:23:43.312Z,26.87
2019-05-06T03:26:14.529Z,28.73
2019-05-06T03:28:47.156Z,25.63
2019-05-06T03:31:25.307Z,26.23
2019-05-06T03:34:13.207Z,26.33
2019-05-06T03:36:34.918Z,27.00
2019-05-06T03:39:05.762Z,25.13
2019-05-06T03:41:38.872Z,25.00
2019-05-06T03:44:16.286Z,23.83
2019-05-06T03:46:54.432Z,25.43
2019-05-06T03:49:28.790Z,23.80
2019-05-06T03:52:02.788Z,27.43
2019-05-06T03:54:37.295Z,30.73
2019-05-06T03:57:09.898Z,27.40
2019-05-06T03:59:43.557Z,26.60
2019-05-06T04:02:17.796Z,28.27
2019-05-06T04:04:55.824Z,25.97
2019-05-06T04:07:25.280Z,27.67
2019-05-06T04:09:58.014Z,29.43
2019-05-06T04:12:33.668Z,28.17
2019-05-06T04:15:07.792Z,27.13
2019-05-06T04:17:43.803Z,28.17
2019-05-06T04:20:16.977Z,30.97
2019-05-06T04:22:53.256Z,28.93
2019-05-06T04:25:44.800Z,28.03
2019-05-06T04:28:19.100Z,28.37
2019-05-06T04:30:54.564Z,26.43
2019-05-06T04:33:27.123Z,25.70
2019-05-06T04:36:03.393Z,24.50
2019-05-06T04:38:35.335Z,26.80
2019-05-06T04:41:08.141Z,27.60
2019-05-06T04:43:43.619Z,29.57
2019-05-06T04:46:16.935Z,31.50
2019-05-06T04:48:49.727Z,31.63
2019-05-06T04:51:24.791Z,32.77
2019-05-06T04:53:57.389Z,30.87
2019-05-06T04:56:33.174Z,28.00
2019-05-06T04:59:06.240Z,25.90
2019-05-06T05:01:39.545Z,24.57
2019-05-06T05:04:24.658Z,22.97
2019-05-06T05:06:48.136Z,30.27
2019-05-06T05:09:23.083Z,24.60
2019-05-06T05:11:58.158Z,34.73
2019-05-06T05:14:38.335Z,32.30
2019-05-06T05:17:28.020Z,24.90
2019-05-06T05:20:02.127Z,17.90
2019-05-06T05:22:35.730Z,14.17
2019-05-06T05:25:09.075Z,15.73
2019-05-06T05:27:42.190Z,20.03
2019-05-06T05:30:15.760Z,29.67
2019-05-06T05:32:49.086Z,28.97
2019-05-06T05:35:22.719Z,24.00
2019-05-06T05:37:56.949Z,69.63
2019-05-06T05:40:32.068Z,80.47
2019-05-06T05:43:09.081Z,22.57
2019-05-06T05:45:42.411Z,37.00
2019-05-06T05:48:28.810Z,15.33
2019-05-06T05:51:03.285Z,13.03
2019-05-06T05:53:36.064Z,28.20
2019-05-06T05:56:09.261Z,24.83
2019-05-06T05:58:42.527Z,15.77
2019-05-06T06:01:15.228Z,8.47
2019-05-06T06:03:48.125Z,50.67
2019-05-06T06:06:22.160Z,10.57
2019-05-06T06:08:56.540Z,16.47
2019-05-06T06:11:33.389Z,39.47
2019-05-06T06:14:07.758Z,9.77
2019-05-06T06:16:42.320Z,23.40
2019-05-06T06:19:22.129Z,11.07
2019-05-06T06:21:56.537Z,12.30
2019-05-06T06:24:32.229Z,21.23
2019-05-06T06:27:05.859Z,23.40
2019-05-06T06:29:38.374Z,32.40
2019-05-06T06:32:27.936Z,26.37
2019-05-06T06:35:11.487Z,19.93
2019-05-06T06:37:53.220Z,28.03
2019-05-06T06:40:26.800Z,5.87
2019-05-06T06:43:02.206Z,8.27
2019-05-06T06:45:35.650Z,12.73
2019-05-06T06:48:08.630Z,32.70
2019-05-06T06:50:42.643Z,13.03
2019-05-06T06:53:15.596Z,18.23
2019-05-06T06:55:48.325Z,8.30
2019-05-06T06:58:26.296Z,23.80
2019-05-06T07:01:03.139Z,23.67
2019-05-06T07:03:39.295Z,11.77
2019-05-06T07:06:23.819Z,8.07
2019-05-06T07:08:56.697Z,9.87
2019-05-06T07:11:29.515Z,12.03
2019-05-06T07:14:02.716Z,21.93
2019-05-06T07:16:35.409Z,11.60
2019-05-06T07:19:08.230Z,5.80
2019-05-06T07:21:43.544Z,6.70
2019-05-06T07:24:16.330Z,9.50
2019-05-06T07:26:53.550Z,19.73
2019-05-06T07:29:26.729Z,24.77
2019-05-06T07:31:59.835Z,15.50
2019-05-06T07:34:32.286Z,9.87
2019-05-06T07:37:04.685Z,10.23
2019-05-06T07:39:38.355Z,12.47
2019-05-06T07:42:22.712Z,10.43
2019-05-06T07:45:06.420Z,7.43
2019-05-06T07:47:42.631Z,11.80
2019-05-06T07:50:15.765Z,6.73
2019-05-06T07:53:02.379Z,7.30
2019-05-06T07:55:35.115Z,15.33
2019-05-06T07:58:08.108Z,17.63
2019-05-06T08:00:42.300Z,5.90
2019-05-06T08:03:14.980Z,9.47
2019-05-06T08:05:57.503Z,6.60
2019-05-06T08:08:23.066Z,16.60
2019-05-06T08:10:55.655Z,15.03
2019-05-06T08:13:27.936Z,7.90
2019-05-06T08:16:02.271Z,10.40
2019-05-06T08:18:34.575Z,13.00
2019-05-06T08:21:08.535Z,5.70
2019-05-06T08:23:42.887Z,7.37
2019-05-06T08:26:17.792Z,14.30
2019-05-06T08:28:52.615Z,4.43
2019-05-06T08:31:25.015Z,5.50
2019-05-06T08:33:57.556Z,6.80
2019-05-06T08:36:42.634Z,6.53
2019-05-06T08:39:15.555Z,4.67
2019-05-06T08:41:48.255Z,9.73
2019-05-06T08:44:22.479Z,13.13
2019-05-06T08:46:55.297Z,8.97
2019-05-06T08:49:29.275Z,7.50
2019-05-06T08:52:03.177Z,7.20
2019-05-06T08:54:37.875Z,6.70
2019-05-06T08:57:11.903Z,3.83
2019-05-06T08:59:44.485Z,3.57
2019-05-06T09:02:17.515Z,5.77
2019-05-06T09:04:51.815Z,3.80
2019-05-06T09:07:24.296Z,4.17
2019-05-06T09:09:56.936Z,4.30
2019-05-06T09:12:29.595Z,5.47
2019-05-06T09:15:03.505Z,4.27
2019-05-06T09:17:37.594Z,5.30
2019-05-06T09:20:12.901Z,5.43
2019-05-06T09:22:44.895Z,6.53
2019-05-06T09:25:17.595Z,4.80
2019-05-06T09:27:52.668Z,4.53
2019-05-06T09:30:43.072Z,5.33
2019-05-06T09:33:16.454Z,4.50
2019-05-06T09:35:49.195Z,3.47
2019-05-06T09:38:22.842Z,5.83
2019-05-06T09:40:55.407Z,3.40
2019-05-06T09:43:28.316Z,3.80
2019-05-06T09:46:03.555Z,3.27
2019-05-06T09:48:42.443Z,3.23
2019-05-06T09:51:15.355Z,3.77
2019-05-06T09:54:08.156Z,2.83
2019-05-06T09:56:58.798Z,3.27
2019-05-06T09:59:32.173Z,4.13
2019-05-06T10:02:05.608Z,3.73
2019-05-06T10:04:38.935Z,3.37
2019-05-06T10:07:14.295Z,4.60
2019-05-06T10:09:46.715Z,3.70
2019-05-06T10:12:19.781Z,6.60
2019-05-06T10:14:53.211Z,7.93
2019-05-06T10:17:25.903Z,3.47
2019-05-06T10:19:58.795Z,3.13
2019-05-06T10:22:32.438Z,3.50
2019-05-06T10:25:06.496Z,3.33
2019-05-06T10:27:42.212Z,3.27
2019-05-06T10:30:17.616Z,4.73
2019-05-06T10:32:52.886Z,3.17
2019-05-06T10:35:29.169Z,5.77
2019-05-06T10:38:32.815Z,4.80
2019-05-06T10:41:22.483Z,5.43
2019-05-06T10:44:42.787Z,4.43
2019-05-06T10:47:14.355Z,4.30
2019-05-06T10:49:46.857Z,4.30
2019-05-06T10:52:24.134Z,3.67
2019-05-06T10:54:57.135Z,6.17
2019-05-06T10:57:32.825Z,3.70
2019-05-06T11:00:07.866Z,4.47
2019-05-06T11:02:45.975Z,3.83
2019-05-06T11:05:19.111Z,4.47
2019-05-06T11:07:52.677Z,4.60
2019-05-06T11:10:29.528Z,4.33
2019-05-06T11:12:59.114Z,4.17
2019-05-06T11:15:33.025Z,4.07
2019-05-06T11:18:06.215Z,4.40
2019-05-06T11:20:40.093Z,4.93
2019-05-06T11:23:14.144Z,5.27
2019-05-06T11:25:46.536Z,9.43
2019-05-06T11:28:36.475Z,5.33
2019-05-06T11:31:09.374Z,6.47
2019-05-06T11:33:52.596Z,6.17
2019-05-06T11:36:29.496Z,6.17
2019-05-06T11:39:07.600Z,5.67
2019-05-06T11:41:56.487Z,5.50
2019-05-06T11:44:14.475Z,5.83
2019-05-06T11:46:46.895Z,5.23
2019-05-06T11:49:20.325Z,4.97
2019-05-06T11:51:52.599Z,5.00
2019-05-06T11:54:25.137Z,5.30
2019-05-06T11:56:58.578Z,4.73
2019-05-06T11:59:31.335Z,4.40
2019-05-06T12:02:08.275Z,6.17
2019-05-06T12:04:41.940Z,4.90
2019-05-06T12:07:15.699Z,6.27
2019-05-06T12:09:48.826Z,3.73
2019-05-06T12:12:23.343Z,4.80
2019-05-06T12:14:55.675Z,4.27
2019-05-06T12:17:28.035Z,13.57
2019-05-06T12:20:02.990Z,22.60
2019-05-06T12:22:37.795Z,33.40
2019-05-06T12:25:15.301Z,49.27
2019-05-06T12:27:49.495Z,67.57
2019-05-06T12:30:24.556Z,33.17
2019-05-06T12:33:03.238Z,12.23
2019-05-06T12:35:37.835Z,25.80
2019-05-06T12:38:26.708Z,7.83
2019-05-06T12:40:48.895Z,31.67
2019-05-06T12:43:24.436Z,11.47
2019-05-06T12:46:02.960Z,18.37
2019-05-06T12:48:43.972Z,24.23
2019-05-06T12:51:16.916Z,18.50
2019-05-06T12:53:49.395Z,6.90
2019-05-06T12:56:24.395Z,4.93
2019-05-06T12:58:57.315Z,4.43
2019-05-06T13:01:33.496Z,6.83
2019-05-06T13:04:04.831Z,5.77
2019-05-06T13:06:37.565Z,6.57
2019-05-06T13:09:12.420Z,4.37
2019-05-06T13:11:44.055Z,33.40
2019-05-06T13:14:16.500Z,22.90
2019-05-06T13:16:49.137Z,4.93
2019-05-06T13:19:22.815Z,9.07
2019-05-06T13:21:55.659Z,8.40
2019-05-06T13:24:28.156Z,13.50
2019-05-06T13:27:02.608Z,5.43
2019-05-06T13:29:35.713Z,5.13
2019-05-06T13:32:12.674Z,8.43
2019-05-06T13:34:44.958Z,6.07
2019-05-06T13:37:17.842Z,7.57
2019-05-06T13:39:52.768Z,11.07
2019-05-06T13:42:27.055Z,14.13
2019-05-06T13:44:59.456Z,4.13
2019-05-06T13:47:43.776Z,9.23
2019-05-06T13:50:22.910Z,8.23
2019-05-06T13:53:08.041Z,5.63
2019-05-06T13:55:31.096Z,6.53
2019-05-06T13:58:03.761Z,4.57
2019-05-06T14:00:37.015Z,3.90
2019-05-06T14:03:09.535Z,2.87
2019-05-06T14:05:42.579Z,2.90
2019-05-06T14:08:15.186Z,4.00
2019-05-06T14:10:56.796Z,4.40
2019-05-06T14:13:22.099Z,2.55
2019-05-06T14:15:54.675Z,3.00
2019-05-06T14:18:28.075Z,2.23
2019-05-06T14:21:02.919Z,3.73
2019-05-06T14:23:34.835Z,4.50
2019-05-06T14:26:07.415Z,3.23
2019-05-06T14:28:43.041Z,4.30
2019-05-06T14:31:17.185Z,3.40
2019-05-06T14:33:52.095Z,5.07
2019-05-06T14:36:27.542Z,2.93
2019-05-06T14:38:58.936Z,3.67
2019-05-06T14:41:32.747Z,3.07
2019-05-06T14:44:07.511Z,29.60
2019-05-06T14:46:57.192Z,4.20
2019-05-06T14:49:32.377Z,4.10
2019-05-06T14:52:06.054Z,2.70
2019-05-06T14:54:49.485Z,2.77
2019-05-06T14:57:22.928Z,3.10
2019-05-06T14:59:55.970Z,3.70
2019-05-06T15:02:28.917Z,3.53
2019-05-06T15:05:02.988Z,2.57
2019-05-06T15:07:35.965Z,3.50
2019-05-06T15:10:20.311Z,3.53
2019-05-06T15:12:43.591Z,2.60
2019-05-06T15:15:16.939Z,2.83
2019-05-06T15:17:49.476Z,3.30
2019-05-06T15:20:23.027Z,2.87
2019-05-06T15:22:56.360Z,3.30
2019-05-06T15:25:28.985Z,3.30
2019-05-06T15:28:02.545Z,3.60
2019-05-06T15:30:46.080Z,4.53
2019-05-06T15:33:22.465Z,4.57
2019-05-06T15:35:59.506Z,7.67
2019-05-06T15:38:32.603Z,4.37
2019-05-06T15:41:05.411Z,2.40
2019-05-06T15:43:38.250Z,3.83
2019-05-06T15:46:12.217Z,4.53
2019-05-06T15:48:45.030Z,3.50
2019-05-06T15:51:19.220Z,4.47
2019-05-06T15:53:52.961Z,3.87
2019-05-06T15:56:25.881Z,5.07
2019-05-06T15:58:58.310Z,5.23
2019-05-06T16:01:33.213Z,4.73
2019-05-06T16:04:05.499Z,5.17
2019-05-06T16:06:38.355Z,9.77
2019-05-06T16:09:14.219Z,4.70
2019-05-06T16:11:45.155Z,5.10
2019-05-06T16:14:17.585Z,6.50
2019-05-06T16:16:52.677Z,7.87
2019-05-06T16:19:24.964Z,4.73
2019-05-06T16:21:57.989Z,5.37
2019-05-06T16:24:35.244Z,4.50
2019-05-06T16:27:07.949Z,3.67
2019-05-06T16:29:42.888Z,4.40
2019-05-06T16:32:16.740Z,10.00
2019-05-06T16:34:49.816Z,11.83
2019-05-06T16:37:22.453Z,6.03
2019-05-06T16:39:55.015Z,14.20
2019-05-06T16:42:27.861Z,32.33
2019-05-06T16:45:06.963Z,8.00
2019-05-06T16:47:37.656Z,3.80
2019-05-06T16:50:17.375Z,6.43
2019-05-06T16:52:52.341Z,5.03
2019-05-06T16:55:28.899Z,6.93
2019-05-06T16:58:06.265Z,26.20
2019-05-06T17:00:38.870Z,11.03
2019-05-06T17:03:14.593Z,10.27
2019-05-06T17:05:52.002Z,14.43
2019-05-06T17:08:24.995Z,9.53
2019-05-06T17:10:57.786Z,10.27
2019-05-06T17:13:31.078Z,7.77
2019-05-06T17:16:03.789Z,11.17
2019-05-06T17:18:36.490Z,10.93
2019-05-06T17:21:09.201Z,9.27
2019-05-06T17:23:42.319Z,10.03
2019-05-06T17:26:15.076Z,5.20
2019-05-06T17:28:49.216Z,14.97
2019-05-06T17:31:37.135Z,23.10
2019-05-06T17:34:12.823Z,13.07
2019-05-06T17:36:46.047Z,15.73
2019-05-06T17:39:18.660Z,12.17
2019-05-06T17:41:52.192Z,7.67
2019-05-06T17:44:25.290Z,8.43
2019-05-06T17:47:02.653Z,22.53
2019-05-06T17:49:37.045Z,14.03
2019-05-06T17:52:14.226Z,10.77
2019-05-06T17:54:46.786Z,14.60
2019-05-06T17:57:19.440Z,14.23
2019-05-06T17:59:52.824Z,27.33
2019-05-06T18:02:27.202Z,26.10
2019-05-06T18:04:59.680Z,32.83
2019-05-06T18:07:32.785Z,27.60
2019-05-06T18:10:06.200Z,28.10
2019-05-06T18:12:38.956Z,49.40
2019-05-06T18:15:13.377Z,60.70
2019-05-06T18:17:46.244Z,58.70
2019-05-06T18:20:19.125Z,102.33
2019-05-06T18:22:52.502Z,73.17
2019-05-06T18:25:25.435Z,58.10
2019-05-06T18:27:58.005Z,43.10
2019-05-06T18:30:34.289Z,75.57
2019-05-06T18:33:05.287Z,198.47
2019-05-06T18:35:37.965Z,135.37
2019-05-06T18:38:10.505Z,196.47
2019-05-06T18:40:43.175Z,115.63
2019-05-06T18:43:15.905Z,89.37
2019-05-06T18:45:48.815Z,66.87
2019-05-06T18:48:22.440Z,72.10
2019-05-06T18:50:55.175Z,54.77
2019-05-06T18:53:28.945Z,45.90
2019-05-06T18:56:03.116Z,67.77
2019-05-06T18:58:36.030Z,59.37
2019-05-06T19:01:08.966Z,54.93
2019-05-06T19:03:46.461Z,77.40
2019-05-06T19:06:19.035Z,85.07
2019-05-06T19:09:02.629Z,65.77
2019-05-06T19:11:37.070Z,63.30
2019-05-06T19:14:09.656Z,100.40
2019-05-06T19:16:49.854Z,104.87
2019-05-06T19:19:16.695Z,90.27
2019-05-06T19:21:49.225Z,97.37
2019-05-06T19:24:22.669Z,58.63
2019-05-06T19:26:55.474Z,113.80
2019-05-06T19:29:28.300Z,121.53
2019-05-06T19:32:03.037Z,151.80
2019-05-06T19:34:36.240Z,54.23
2019-05-06T19:37:09.132Z,44.43
2019-05-06T19:39:43.120Z,78.57
2019-05-06T19:42:16.105Z,83.43
2019-05-06T19:44:48.806Z,63.83
2019-05-06T19:47:21.431Z,96.40
2019-05-06T19:49:54.290Z,111.53
2019-05-06T19:52:26.926Z,50.23
2019-05-06T19:55:02.924Z,95.53
2019-05-06T19:57:34.804Z,73.00
2019-05-06T20:00:09.080Z,234.30
2019-05-06T20:02:42.936Z,53.87
2019-05-06T20:05:17.505Z,163.47
2019-05-06T20:07:52.230Z,71.87
2019-05-06T20:10:26.529Z,73.90
2019-05-06T20:13:05.276Z,105.37
2019-05-06T20:15:39.055Z,51.50
2019-05-06T20:18:12.894Z,63.37
2019-05-06T20:20:45.685Z,70.57
2019-05-06T20:23:18.215Z,66.17
2019-05-06T20:25:51.926Z,27.53
2019-05-06T20:28:24.795Z,39.80
2019-05-06T20:30:57.585Z,38.23
2019-05-06T20:33:32.539Z,31.70
2019-05-06T20:36:04.499Z,27.93
2019-05-06T20:38:37.151Z,46.63
2019-05-06T20:41:09.745Z,33.00
2019-05-06T20:43:42.413Z,73.80
2019-05-06T20:46:15.020Z,45.50
2019-05-06T20:48:47.680Z,46.13
2019-05-06T20:51:21.957Z,56.63
2019-05-06T20:53:54.745Z,55.40
2019-05-06T20:56:27.521Z,34.90
2019-05-06T20:59:02.381Z,43.67
2019-05-06T21:01:34.880Z,42.80
2019-05-06T21:04:07.600Z,48.13
2019-05-06T21:06:42.418Z,41.87
2019-05-06T21:09:14.800Z,27.67
2019-05-06T21:11:47.510Z,23.17
2019-05-06T21:14:22.551Z,16.20
2019-05-06T21:16:54.720Z,29.30
2019-05-06T21:19:27.541Z,12.23
2019-05-06T21:22:02.182Z,16.70
2019-05-06T21:24:36.196Z,23.43
2019-05-06T21:27:08.821Z,18.50
2019-05-06T21:29:42.104Z,21.00
2019-05-06T21:32:14.775Z,17.00
2019-05-06T21:34:47.360Z,30.87
2019-05-06T21:37:20.461Z,15.90
2019-05-06T21:39:53.050Z,81.53
2019-05-06T21:42:25.740Z,45.53
2019-05-06T21:44:58.500Z,40.33
2019-05-06T21:47:32.542Z,35.47
2019-05-06T21:50:05.860Z,30.33
2019-05-06T21:52:42.272Z,53.10
2019-05-06T21:55:14.799Z,25.63
2019-05-06T21:57:47.074Z,23.47
2019-05-06T22:00:23.382Z,21.10
2019-05-06T22:02:57.870Z,53.60
2019-05-06T22:05:32.073Z,39.40
2019-05-06T22:08:04.900Z,19.30
2019-05-06T22:10:37.860Z,15.37
2019-05-06T22:13:12.596Z,22.83
2019-05-06T22:15:44.509Z,28.13
2019-05-06T22:18:17.045Z,24.57
2019-05-06T22:21:07.145Z,21.60
2019-05-06T22:23:55.418Z,25.17
2019-05-06T22:26:29.049Z,36.00
2019-05-06T22:29:02.159Z,32.40
2019-05-06T22:31:34.840Z,22.60
2019-05-06T22:34:07.665Z,23.43
2019-05-06T22:36:39.949Z,25.20
2019-05-06T22:39:13.566Z,19.20
2019-05-06T22:41:46.095Z,25.67
2019-05-06T22:44:18.780Z,21.73
2019-05-06T22:46:51.549Z,16.00
2019-05-06T22:49:24.824Z,12.70
2019-05-06T22:51:57.373Z,14.50
2019-05-06T22:54:31.976Z,13.33
2019-05-06T22:57:04.056Z,11.97
2019-05-06T22:59:36.975Z,11.03
2019-05-06T23:02:09.350Z,9.80
2019-05-06T23:04:43.618Z,10.60
2019-05-06T23:07:16.350Z,11.30
2019-05-06T23:09:49.500Z,11.17
2019-05-06T23:12:23.149Z,11.93
2019-05-06T23:14:55.717Z,13.77
2019-05-06T23:17:28.431Z,11.20
2019-05-06T23:20:02.322Z,10.50
2019-05-06T23:22:35.286Z,10.27
2019-05-06T23:25:08.740Z,10.23
2019-05-06T23:27:43.887Z,13.17
2019-05-06T23:30:15.730Z,17.90
2019-05-06T23:32:48.125Z,18.30
2019-05-06T23:35:21.995Z,16.43
2019-05-06T23:38:49.050Z,16.83
2019-05-06T23:42:16.194Z,15.30
2019-05-06T23:45:42.876Z,13.77
2019-05-06T23:49:09.759Z,13.17
2019-05-06T23:52:36.635Z,10.57
2019-05-06T23:56:04.080Z,10.50
2019-05-06T23:58:36.625Z,10.03
